University of Wyoming, Wyoming
Current Conditions -  °F | °C
As of 8:53 PM on Tuesday 21 Oct 2014 (Local Time) from KLAR Reporting Station
Overcast Overcast  
Wind Chill: 10°   Ceiling: 7500
Heat Index: 10°   Visibility: 10mi
Dew Point:   Wind: 9mph
Humidity: 63%   Direction: 260°W
Pressure: 30.06"   Gusts: NA
Location:  41.4218°N, 105.605°W
Report Text: KLAR 220253Z AUTO 26008KT 10SM SCT060 BKN075 OVC110 10/03 A3006 RMK AO2 RAB13E44 SLP111 P0000 60000 T01000033 50009
Loading
Personal Weather Stations






























Interactive Weather Map
Tropical Storm Tracking
New forecast layout! Learn more

10-Day Weather Forecast

Advertisements
Track Severe Weather on mobile